sensor_id;sensor_type;location;lat;lon;timestamp;pressure;altitude;pressure_sealevel;temperature;humidity
69153;BME280;56261;51.580;4.578;2024-02-26T00:01:48;99899.88;;;6.41;100.00
69153;BME280;56261;51.580;4.578;2024-02-26T00:04:13;99900.50;;;6.52;100.00
69153;BME280;56261;51.580;4.578;2024-02-26T00:06:39;99899.53;;;6.53;100.00
69153;BME280;56261;51.580;4.578;2024-02-26T00:09:07;99897.69;;;6.45;100.00
69153;BME280;56261;51.580;4.578;2024-02-26T00:11:35;99893.72;;;6.57;100.00
69153;BME280;56261;51.580;4.578;2024-02-26T00:14:00;99891.56;;;6.44;100.00
69153;BME280;56261;51.580;4.578;2024-02-26T00:16:26;99886.28;;;6.44;100.00
69153;BME280;56261;51.580;4.578;2024-02-26T00:18:51;99883.66;;;6.36;100.00
69153;BME280;56261;51.580;4.578;2024-02-26T00:21:16;99882.31;;;6.32;100.00
69153;BME280;56261;51.580;4.578;2024-02-26T00:23:42;99891.75;;;6.43;100.00
69153;BME280;56261;51.580;4.578;2024-02-26T00:26:07;99882.50;;;6.39;100.00
69153;BME280;56261;51.580;4.578;2024-02-26T00:28:33;99862.47;;;6.28;100.00
69153;BME280;56261;51.580;4.578;2024-02-26T00:30:58;99883.97;;;6.41;100.00
69153;BME280;56261;51.580;4.578;2024-02-26T00:33:24;99881.47;;;6.48;100.00
69153;BME280;56261;51.580;4.578;2024-02-26T00:35:49;99878.69;;;6.41;100.00
69153;BME280;56261;51.580;4.578;2024-02-26T00:38:14;99887.63;;;6.32;100.00
69153;BME280;56261;51.580;4.578;2024-02-26T00:40:40;99880.31;;;6.42;100.00
69153;BME280;56261;51.580;4.578;2024-02-26T00:43:08;99888.59;;;6.31;100.00
69153;BME280;56261;51.580;4.578;2024-02-26T00:45:33;99884.13;;;6.32;100.00
69153;BME280;56261;51.580;4.578;2024-02-26T00:47:59;99897.88;;;6.35;100.00
69153;BME280;56261;51.580;4.578;2024-02-26T00:50:29;99906.81;;;6.26;100.00
69153;BME280;56261;51.580;4.578;2024-02-26T00:52:55;99902.34;;;6.27;100.00
69153;BME280;56261;51.580;4.578;2024-02-26T00:55:20;99910.44;;;6.25;100.00
69153;BME280;56261;51.580;4.578;2024-02-26T00:57:45;99906.81;;;6.26;100.00
69153;BME280;56261;51.580;4.578;2024-02-26T01:00:11;99907.97;;;6.23;100.00
69153;BME280;56261;51.580;4.578;2024-02-26T01:02:37;99916.41;;;6.35;100.00
69153;BME280;56261;51.580;4.578;2024-02-26T01:05:04;99908.63;;;6.26;100.00
69153;BME280;56261;51.580;4.578;2024-02-26T01:07:31;99910.94;;;6.20;100.00
69153;BME280;56261;51.580;4.578;2024-02-26T01:10:03;99906.13;;;6.08;100.00
69153;BME280;56261;51.580;4.578;2024-02-26T01:12:30;99899.50;;;6.20;100.00
69153;BME280;56261;51.580;4.578;2024-02-26T01:14:56;99903.97;;;6.11;100.00
69153;BME280;56261;51.580;4.578;2024-02-26T01:17:21;99898.19;;;6.16;100.00
69153;BME280;56261;51.580;4.578;2024-02-26T01:19:47;99904.16;;;6.10;100.00
69153;BME280;56261;51.580;4.578;2024-02-26T01:22:12;99903.50;;;6.08;100.00
69153;BME280;56261;51.580;4.578;2024-02-26T01:24:37;99909.13;;;6.21;100.00
69153;BME280;56261;51.580;4.578;2024-02-26T01:27:03;99903.00;;;6.12;100.00
69153;BME280;56261;51.580;4.578;2024-02-26T01:29:28;99911.09;;;6.11;100.00
69153;BME280;56261;51.580;4.578;2024-02-26T01:31:54;99895.91;;;6.21;100.00
69153;BME280;56261;51.580;4.578;2024-02-26T01:34:20;99911.13;;;6.19;100.00
69153;BME280;56261;51.580;4.578;2024-02-26T01:36:49;99903.47;;;6.16;100.00
69153;BME280;56261;51.580;4.578;2024-02-26T01:39:14;99910.94;;;6.12;100.00
69153;BME280;56261;51.580;4.578;2024-02-26T01:41:40;99915.91;;;6.32;100.00
69153;BME280;56261;51.580;4.578;2024-02-26T01:44:06;99917.25;;;6.28;100.00
69153;BME280;56261;51.580;4.578;2024-02-26T01:46:33;99915.09;;;6.23;100.00
69153;BME280;56261;51.580;4.578;2024-02-26T01:49:00;99920.56;;;6.30;100.00
69153;BME280;56261;51.580;4.578;2024-02-26T01:51:26;99928.97;;;6.33;100.00
69153;BME280;56261;51.580;4.578;2024-02-26T01:53:52;99926.19;;;6.35;100.00
69153;BME280;56261;51.580;4.578;2024-02-26T01:56:19;99923.34;;;6.28;100.00
69153;BME280;56261;51.580;4.578;2024-02-26T01:58:46;99923.84;;;6.15;100.00
69153;BME280;56261;51.580;4.578;2024-02-26T02:01:12;99925.34;;;6.10;100.00
69153;BME280;56261;51.580;4.578;2024-02-26T02:03:40;99921.84;;;6.01;100.00
69153;BME280;56261;51.580;4.578;2024-02-26T02:06:07;99931.28;;;6.03;100.00
69153;BME280;56261;51.580;4.578;2024-02-26T02:08:33;99925.13;;;5.95;100.00
69153;BME280;56261;51.580;4.578;2024-02-26T02:11:00;99931.84;;;5.89;100.00
69153;BME280;56261;51.580;4.578;2024-02-26T02:13:25;99934.84;;;5.86;100.00
69153;BME280;56261;51.580;4.578;2024-02-26T02:15:51;99941.00;;;5.95;100.00
69153;BME280;56261;51.580;4.578;2024-02-26T02:18:17;99950.91;;;5.93;100.00
69153;BME280;56261;51.580;4.578;2024-02-26T02:20:43;99940.28;;;5.85;100.00
69153;BME280;56261;51.580;4.578;2024-02-26T02:23:08;99944.59;;;5.86;100.00
69153;BME280;56261;51.580;4.578;2024-02-26T02:25:33;99951.19;;;5.81;100.00
69153;BME280;56261;51.580;4.578;2024-02-26T02:27:59;99947.53;;;5.74;100.00
69153;BME280;56261;51.580;4.578;2024-02-26T02:30:27;99957.47;;;5.72;100.00
69153;BME280;56261;51.580;4.578;2024-02-26T02:32:53;99947.34;;;5.68;100.00
69153;BME280;56261;51.580;4.578;2024-02-26T02:35:20;99951.66;;;5.69;100.00
69153;BME280;56261;51.580;4.578;2024-02-26T02:37:45;99951.50;;;5.70;100.00
69153;BME280;56261;51.580;4.578;2024-02-26T02:40:10;99964.56;;;5.80;100.00
69153;BME280;56261;51.580;4.578;2024-02-26T02:42:36;99957.91;;;5.59;100.00
69153;BME280;56261;51.580;4.578;2024-02-26T02:45:01;99964.00;;;5.60;100.00
69153;BME280;56261;51.580;4.578;2024-02-26T02:47:27;99965.53;;;5.71;100.00
69153;BME280;56261;51.580;4.578;2024-02-26T02:49:52;99974.78;;;5.58;100.00
69153;BME280;56261;51.580;4.578;2024-02-26T02:52:17;99973.28;;;5.64;100.00
69153;BME280;56261;51.580;4.578;2024-02-26T02:54:43;99960.03;;;5.56;100.00
69153;BME280;56261;51.580;4.578;2024-02-26T02:57:08;99964.50;;;5.55;100.00
69153;BME280;56261;51.580;4.578;2024-02-26T02:59:35;99965.16;;;5.49;100.00
69153;BME280;56261;51.580;4.578;2024-02-26T03:02:00;99963.13;;;5.43;100.00
69153;BME280;56261;51.580;4.578;2024-02-26T03:04:26;99969.38;;;5.42;100.00
69153;BME280;56261;51.580;4.578;2024-02-26T03:06:51;99970.19;;;5.34;100.00
69153;BME280;56261;51.580;4.578;2024-02-26T03:09:17;99976.97;;;5.37;100.00
69153;BME280;56261;51.580;4.578;2024-02-26T03:11:42;99968.38;;;5.35;100.00
69153;BME280;56261;51.580;4.578;2024-02-26T03:14:08;99976.16;;;5.36;100.00
69153;BME280;56261;51.580;4.578;2024-02-26T03:16:35;99976.72;;;5.22;100.00
69153;BME280;56261;51.580;4.578;2024-02-26T03:19:00;99976.22;;;5.18;100.00
69153;BME280;56261;51.580;4.578;2024-02-26T03:21:27;99971.91;;;5.17;100.00
69153;BME280;56261;51.580;4.578;2024-02-26T03:23:52;99969.44;;;5.16;100.00
69153;BME280;56261;51.580;4.578;2024-02-26T03:26:18;99968.75;;;5.14;100.00
69153;BME280;56261;51.580;4.578;2024-02-26T03:28:43;99980.69;;;5.18;100.00
69153;BME280;56261;51.580;4.578;2024-02-26T03:31:09;99971.19;;;5.07;100.00
69153;BME280;56261;51.580;4.578;2024-02-26T03:33:35;99981.38;;;5.02;100.00
69153;BME280;56261;51.580;4.578;2024-02-26T03:36:01;99977.16;;;5.09;100.00
69153;BME280;56261;51.580;4.578;2024-02-26T03:38:28;99981.13;;;5.13;100.00
69153;BME280;56261;51.580;4.578;2024-02-26T03:40:53;99977.91;;;5.02;100.00
69153;BME280;56261;51.580;4.578;2024-02-26T03:43:19;99977.63;;;5.05;100.00
69153;BME280;56261;51.580;4.578;2024-02-26T03:45:44;99985.38;;;5.06;100.00
69153;BME280;56261;51.580;4.578;2024-02-26T03:48:09;99989.97;;;5.04;100.00
69153;BME280;56261;51.580;4.578;2024-02-26T03:50:35;99990.78;;;4.96;100.00
69153;BME280;56261;51.580;4.578;2024-02-26T03:53:00;99991.72;;;4.95;100.00
69153;BME280;56261;51.580;4.578;2024-02-26T03:55:26;99987.13;;;4.97;100.00
69153;BME280;56261;51.580;4.578;2024-02-26T03:57:51;99989.78;;;4.97;100.00
69153;BME280;56261;51.580;4.578;2024-02-26T04:00:17;99989.31;;;5.02;100.00
69153;BME280;56261;51.580;4.578;2024-02-26T04:02:43;99998.09;;;5.03;100.00
69153;BME280;56261;51.580;4.578;2024-02-26T04:05:11;99997.44;;;5.09;100.00
69153;BME280;56261;51.580;4.578;2024-02-26T04:07:37;99994.09;;;4.98;100.00
69153;BME280;56261;51.580;4.578;2024-02-26T04:10:02;99984.66;;;4.96;100.00
69153;BME280;56261;51.580;4.578;2024-02-26T04:12:31;99977.41;;;4.98;100.00
69153;BME280;56261;51.580;4.578;2024-02-26T04:14:56;99979.66;;;4.93;100.00
69153;BME280;56261;51.580;4.578;2024-02-26T04:17:21;99998.34;;;4.91;100.00
69153;BME280;56261;51.580;4.578;2024-02-26T04:19:47;99996.19;;;4.95;100.00
69153;BME280;56261;51.580;4.578;2024-02-26T04:22:12;99997.13;;;4.86;100.00
69153;BME280;56261;51.580;4.578;2024-02-26T04:24:38;99996.38;;;4.93;100.00
69153;BME280;56261;51.580;4.578;2024-02-26T04:27:03;100008.22;;;4.89;100.00
69153;BME280;56261;51.580;4.578;2024-02-26T04:29:28;99997.72;;;4.79;100.00
69153;BME280;56261;51.580;4.578;2024-02-26T04:31:54;100008.16;;;4.81;100.00
69153;BME280;56261;51.580;4.578;2024-02-26T04:34:19;100003.69;;;4.82;100.00
69153;BME280;56261;51.580;4.578;2024-02-26T04:36:48;100006.19;;;4.83;100.00
69153;BME280;56261;51.580;4.578;2024-02-26T04:39:13;100014.03;;;4.75;100.00
69153;BME280;56261;51.580;4.578;2024-02-26T04:41:39;100021.81;;;4.76;100.00
69153;BME280;56261;51.580;4.578;2024-02-26T04:44:05;100018.56;;;4.83;100.00
69153;BME280;56261;51.580;4.578;2024-02-26T04:46:30;100017.72;;;4.82;100.00
69153;BME280;56261;51.580;4.578;2024-02-26T04:48:55;100022.41;;;4.88;100.00
69153;BME280;56261;51.580;4.578;2024-02-26T04:51:21;100014.56;;;4.78;100.00
69153;BME280;56261;51.580;4.578;2024-02-26T04:53:47;100024.81;;;4.82;100.00
69153;BME280;56261;51.580;4.578;2024-02-26T04:56:12;100024.91;;;4.90;100.00
69153;BME280;56261;51.580;4.578;2024-02-26T04:58:37;100035.03;;;4.76;100.00
69153;BME280;56261;51.580;4.578;2024-02-26T05:01:03;100035.16;;;4.75;100.00
69153;BME280;56261;51.580;4.578;2024-02-26T05:03:29;100038.63;;;4.75;100.00
69153;BME280;56261;51.580;4.578;2024-02-26T05:05:54;100023.47;;;4.77;100.00
69153;BME280;56261;51.580;4.578;2024-02-26T05:08:20;100045.81;;;4.83;100.00
69153;BME280;56261;51.580;4.578;2024-02-26T05:10:45;100040.16;;;4.78;100.00
69153;BME280;56261;51.580;4.578;2024-02-26T05:13:11;100042.34;;;4.83;100.00
69153;BME280;56261;51.580;4.578;2024-02-26T05:15:36;100034.72;;;4.79;100.00
69153;BME280;56261;51.580;4.578;2024-02-26T05:18:02;100040.16;;;4.78;100.00
69153;BME280;56261;51.580;4.578;2024-02-26T05:20:28;100040.38;;;4.85;100.00
69153;BME280;56261;51.580;4.578;2024-02-26T05:22:53;100054.19;;;4.78;100.00
69153;BME280;56261;51.580;4.578;2024-02-26T05:25:19;100051.25;;;4.82;100.00
69153;BME280;56261;51.580;4.578;2024-02-26T05:27:45;100044.09;;;4.74;100.00
69153;BME280;56261;51.580;4.578;2024-02-26T05:30:11;100054.06;;;4.80;100.00
69153;BME280;56261;51.580;4.578;2024-02-26T05:32:36;100055.84;;;4.79;100.00
69153;BME280;56261;51.580;4.578;2024-02-26T05:35:02;100056.97;;;4.77;100.00
69153;BME280;56261;51.580;4.578;2024-02-26T05:37:29;100063.78;;;4.79;100.00
69153;BME280;56261;51.580;4.578;2024-02-26T05:39:57;100072.69;;;4.78;100.00
69153;BME280;56261;51.580;4.578;2024-02-26T05:42:23;100075.78;;;4.74;100.00
69153;BME280;56261;51.580;4.578;2024-02-26T05:44:48;100075.78;;;4.74;100.00
69153;BME280;56261;51.580;4.578;2024-02-26T05:47:14;100079.25;;;4.74;100.00
69153;BME280;56261;51.580;4.578;2024-02-26T05:49:39;100084.69;;;4.73;100.00
69153;BME280;56261;51.580;4.578;2024-02-26T05:52:05;100094.78;;;4.77;100.00
69153;BME280;56261;51.580;4.578;2024-02-26T05:54:31;100093.47;;;4.73;100.00
69153;BME280;56261;51.580;4.578;2024-02-26T05:56:57;100095.25;;;4.73;100.00
69153;BME280;56261;51.580;4.578;2024-02-26T05:59:22;100098.06;;;4.71;100.00
69153;BME280;56261;51.580;4.578;2024-02-26T06:01:48;100101.53;;;4.72;100.00
69153;BME280;56261;51.580;4.578;2024-02-26T06:04:13;100106.81;;;4.72;100.00
69153;BME280;56261;51.580;4.578;2024-02-26T06:06:38;100111.63;;;4.76;100.00
69153;BME280;56261;51.580;4.578;2024-02-26T06:09:04;100106.50;;;4.75;100.00
69153;BME280;56261;51.580;4.578;2024-02-26T06:11:30;100115.41;;;4.74;100.00
69153;BME280;56261;51.580;4.578;2024-02-26T06:13:56;100125.66;;;4.77;100.00
69153;BME280;56261;51.580;4.578;2024-02-26T06:16:21;100121.22;;;4.77;100.00
69153;BME280;56261;51.580;4.578;2024-02-26T06:18:47;100124.84;;;4.76;100.00
69153;BME280;56261;51.580;4.578;2024-02-26T06:21:12;100133.44;;;4.78;100.00
69153;BME280;56261;51.580;4.578;2024-02-26T06:23:38;100125.22;;;4.82;100.00
69153;BME280;56261;51.580;4.578;2024-02-26T06:26:04;100136.91;;;4.79;100.00
69153;BME280;56261;51.580;4.578;2024-02-26T06:28:29;100134.41;;;4.77;100.00
69153;BME280;56261;51.580;4.578;2024-02-26T06:30:57;100144.84;;;4.79;100.00
69153;BME280;56261;51.580;4.578;2024-02-26T06:33:22;100138.72;;;4.78;100.00
69153;BME280;56261;51.580;4.578;2024-02-26T06:35:48;100145.97;;;4.76;100.00
69153;BME280;56261;51.580;4.578;2024-02-26T06:38:13;100147.63;;;4.77;100.00
69153;BME280;56261;51.580;4.578;2024-02-26T06:40:39;100139.00;;;4.75;100.00
69153;BME280;56261;51.580;4.578;2024-02-26T06:43:04;100143.78;;;4.72;100.00
69153;BME280;56261;51.580;4.578;2024-02-26T06:45:30;100153.59;;;4.79;100.00
69153;BME280;56261;51.580;4.578;2024-02-26T06:47:55;100155.84;;;4.74;100.00
69153;BME280;56261;51.580;4.578;2024-02-26T06:50:21;100163.66;;;4.76;100.00
69153;BME280;56261;51.580;4.578;2024-02-26T06:52:47;100162.28;;;4.72;100.00
69153;BME280;56261;51.580;4.578;2024-02-26T06:55:12;100165.75;;;4.72;100.00
69153;BME280;56261;51.580;4.578;2024-02-26T06:57:38;100176.53;;;4.79;100.00
69153;BME280;56261;51.580;4.578;2024-02-26T07:00:04;100181.97;;;4.77;100.00
69153;BME280;56261;51.580;4.578;2024-02-26T07:02:29;100174.91;;;4.78;100.00
69153;BME280;56261;51.580;4.578;2024-02-26T07:04:55;100194.66;;;4.74;100.00
69153;BME280;56261;51.580;4.578;2024-02-26T07:07:23;100187.41;;;4.76;100.00
69153;BME280;56261;51.580;4.578;2024-02-26T07:09:48;100191.19;;;4.73;100.00
69153;BME280;56261;51.580;4.578;2024-02-26T07:12:14;100201.75;;;4.73;100.00
69153;BME280;56261;51.580;4.578;2024-02-26T07:14:41;100208.56;;;4.76;100.00
69153;BME280;56261;51.580;4.578;2024-02-26T07:17:06;100203.53;;;4.73;100.00
69153;BME280;56261;51.580;4.578;2024-02-26T07:19:32;100219.38;;;4.73;100.00
69153;BME280;56261;51.580;4.578;2024-02-26T07:21:57;100209.00;;;4.71;100.00
69153;BME280;56261;51.580;4.578;2024-02-26T07:24:23;100216.75;;;4.73;100.00
69153;BME280;56261;51.580;4.578;2024-02-26T07:26:48;100226.34;;;4.74;100.00
69153;BME280;56261;51.580;4.578;2024-02-26T07:29:13;100225.38;;;4.75;100.00
69153;BME280;56261;51.580;4.578;2024-02-26T07:31:39;100224.69;;;4.73;100.00
69153;BME280;56261;51.580;4.578;2024-02-26T07:34:04;100242.47;;;4.71;100.00
69153;BME280;56261;51.580;4.578;2024-02-26T07:36:30;100244.03;;;4.73;100.00
69153;BME280;56261;51.580;4.578;2024-02-26T07:38:55;100245.44;;;4.68;100.00
69153;BME280;56261;51.580;4.578;2024-02-26T07:41:20;100247.94;;;4.69;100.00
69153;BME280;56261;51.580;4.578;2024-02-26T07:43:46;100250.03;;;4.66;100.00
69153;BME280;56261;51.580;4.578;2024-02-26T07:46:12;100255.16;;;4.67;100.00
69153;BME280;56261;51.580;4.578;2024-02-26T07:48:37;100254.88;;;4.70;100.00
69153;BME280;56261;51.580;4.578;2024-02-26T07:51:04;100262.41;;;4.65;100.00
69153;BME280;56261;51.580;4.578;2024-02-26T07:53:29;100265.56;;;4.69;100.00
69153;BME280;56261;51.580;4.578;2024-02-26T07:55:55;100253.47;;;4.66;100.00
69153;BME280;56261;51.580;4.578;2024-02-26T07:58:22;100267.97;;;4.62;100.00
69153;BME280;56261;51.580;4.578;2024-02-26T08:00:48;100274.47;;;4.68;100.00
69153;BME280;56261;51.580;4.578;2024-02-26T08:03:14;100270.03;;;4.68;100.00
69153;BME280;56261;51.580;4.578;2024-02-26T08:05:41;100286.84;;;4.67;100.00
69153;BME280;56261;51.580;4.578;2024-02-26T08:08:08;100284.06;;;4.69;100.00
69153;BME280;56261;51.580;4.578;2024-02-26T08:10:33;100290.72;;;4.73;100.00
69153;BME280;56261;51.580;4.578;2024-02-26T08:12:58;100300.75;;;4.69;100.00
69153;BME280;56261;51.580;4.578;2024-02-26T08:15:31;100308.50;;;4.71;100.00
69153;BME280;56261;51.580;4.578;2024-02-26T08:17:56;100296.44;;;4.68;100.00
69153;BME280;56261;51.580;4.578;2024-02-26T08:20:21;100303.41;;;4.69;100.00
69153;BME280;56261;51.580;4.578;2024-02-26T08:22:47;100299.91;;;4.69;100.00
69153;BME280;56261;51.580;4.578;2024-02-26T08:25:12;100317.44;;;4.70;100.00
69153;BME280;56261;51.580;4.578;2024-02-26T08:27:38;100304.66;;;4.65;100.00
69153;BME280;56261;51.580;4.578;2024-02-26T08:30:04;100309.25;;;4.63;100.00
69153;BME280;56261;51.580;4.578;2024-02-26T08:32:29;100323.00;;;4.67;100.00
69153;BME280;56261;51.580;4.578;2024-02-26T08:34:55;100328.28;;;4.67;100.00
69153;BME280;56261;51.580;4.578;2024-02-26T08:37:21;100323.53;;;4.70;100.00
69153;BME280;56261;51.580;4.578;2024-02-26T08:39:46;100331.59;;;4.69;100.00
69153;BME280;56261;51.580;4.578;2024-02-26T08:42:12;100329.25;;;4.66;100.00
69153;BME280;56261;51.580;4.578;2024-02-26T08:44:37;100342.03;;;4.70;100.00
69153;BME280;56261;51.580;4.578;2024-02-26T08:47:02;100338.16;;;4.65;100.00
69153;BME280;56261;51.580;4.578;2024-02-26T08:49:28;100361.06;;;4.74;100.00
69153;BME280;56261;51.580;4.578;2024-02-26T08:51:53;100360.22;;;4.83;100.00
69153;BME280;56261;51.580;4.578;2024-02-26T08:54:19;100361.50;;;4.69;100.00
69153;BME280;56261;51.580;4.578;2024-02-26T08:56:44;100366.34;;;4.74;100.00
69153;BME280;56261;51.580;4.578;2024-02-26T08:59:09;100365.38;;;4.75;100.00
69153;BME280;56261;51.580;4.578;2024-02-26T09:01:35;100368.44;;;4.70;100.00
69153;BME280;56261;51.580;4.578;2024-02-26T09:04:00;100370.66;;;4.75;100.00
69153;BME280;56261;51.580;4.578;2024-02-26T09:06:25;100374.28;;;4.74;100.00
69153;BME280;56261;51.580;4.578;2024-02-26T09:08:51;100376.75;;;4.75;100.00
69153;BME280;56261;51.580;4.578;2024-02-26T09:11:16;100382.03;;;4.75;100.00
69153;BME280;56261;51.580;4.578;2024-02-26T09:13:42;100386.94;;;4.70;100.00
69153;BME280;56261;51.580;4.578;2024-02-26T09:16:07;100387.91;;;4.69;100.00
69153;BME280;56261;51.580;4.578;2024-02-26T09:18:33;100384.41;;;4.78;100.00
69153;BME280;56261;51.580;4.578;2024-02-26T09:20:58;100401.09;;;4.79;100.00
69153;BME280;56261;51.580;4.578;2024-02-26T09:23:24;100384.16;;;4.72;100.00
69153;BME280;56261;51.580;4.578;2024-02-26T09:25:49;100400.53;;;4.85;100.00
69153;BME280;56261;51.580;4.578;2024-02-26T09:28:14;100403.69;;;4.89;100.00
69153;BME280;56261;51.580;4.578;2024-02-26T09:30:43;100406.91;;;4.92;100.00
69153;BME280;56261;51.580;4.578;2024-02-26T09:33:08;100412.75;;;4.96;100.00
69153;BME280;56261;51.580;4.578;2024-02-26T09:35:33;100414.69;;;4.84;100.00
69153;BME280;56261;51.580;4.578;2024-02-26T09:37:59;100413.69;;;4.95;100.00
69153;BME280;56261;51.580;4.578;2024-02-26T09:40:24;100412.47;;;4.89;100.00
69153;BME280;56261;51.580;4.578;2024-02-26T09:42:53;100414.97;;;4.91;100.00
69153;BME280;56261;51.580;4.578;2024-02-26T09:45:25;100431.13;;;4.88;100.00
69153;BME280;56261;51.580;4.578;2024-02-26T09:47:55;100420.84;;;4.85;100.00
69153;BME280;56261;51.580;4.578;2024-02-26T09:50:21;100434.88;;;4.85;100.00
69153;BME280;56261;51.580;4.578;2024-02-26T09:52:48;100427.38;;;4.81;100.00
69153;BME280;56261;51.580;4.578;2024-02-26T09:55:14;100447.53;;;4.91;100.00
69153;BME280;56261;51.580;4.578;2024-02-26T09:57:45;100452.13;;;4.89;100.00
69153;BME280;56261;51.580;4.578;2024-02-26T10:00:15;100443.34;;;4.89;100.00
69153;BME280;56261;51.580;4.578;2024-02-26T10:02:45;100459.47;;;4.86;100.00
69153;BME280;56261;51.580;4.578;2024-02-26T10:05:12;100455.72;;;4.88;100.00
69153;BME280;56261;51.580;4.578;2024-02-26T10:07:40;100465.88;;;4.83;100.00
69153;BME280;56261;51.580;4.578;2024-02-26T10:10:08;100471.19;;;4.83;100.00
69153;BME280;56261;51.580;4.578;2024-02-26T10:12:33;100473.00;;;4.83;100.00
69153;BME280;56261;51.580;4.578;2024-02-26T10:14:59;100483.69;;;4.81;100.00
69153;BME280;56261;51.580;4.578;2024-02-26T10:17:24;100475.47;;;4.84;100.00
69153;BME280;56261;51.580;4.578;2024-02-26T10:19:50;100480.66;;;4.76;100.00
69153;BME280;56261;51.580;4.578;2024-02-26T10:22:17;100495.09;;;4.82;100.00
69153;BME280;56261;51.580;4.578;2024-02-26T10:24:42;100496.59;;;4.84;100.00
69153;BME280;56261;51.580;4.578;2024-02-26T10:27:08;100504.09;;;4.89;100.00
69153;BME280;56261;51.580;4.578;2024-02-26T10:29:34;100505.38;;;4.85;100.00
69153;BME280;56261;51.580;4.578;2024-02-26T10:32:00;100514.84;;;4.87;100.00
69153;BME280;56261;51.580;4.578;2024-02-26T10:34:26;100525.84;;;4.83;100.00
69153;BME280;56261;51.580;4.578;2024-02-26T10:36:53;100508.03;;;4.85;100.00
69153;BME280;56261;51.580;4.578;2024-02-26T10:39:18;100519.28;;;4.77;100.00
69153;BME280;56261;51.580;4.578;2024-02-26T10:41:44;100531.38;;;4.79;100.00
69153;BME280;56261;51.580;4.578;2024-02-26T10:44:12;100535.97;;;4.77;100.00
69153;BME280;56261;51.580;4.578;2024-02-26T10:46:40;100528.63;;;4.71;100.00
69153;BME280;56261;51.580;4.578;2024-02-26T10:49:10;100528.59;;;4.81;100.00
69153;BME280;56261;51.580;4.578;2024-02-26T10:51:37;100536.81;;;4.78;100.00
69153;BME280;56261;51.580;4.578;2024-02-26T10:54:04;100542.50;;;4.83;100.00
69153;BME280;56261;51.580;4.578;2024-02-26T10:56:34;100542.81;;;4.80;100.00
69153;BME280;56261;51.580;4.578;2024-02-26T10:59:00;100551.69;;;4.79;100.00
69153;BME280;56261;51.580;4.578;2024-02-26T11:01:27;100559.19;;;4.84;100.00
69153;BME280;56261;51.580;4.578;2024-02-26T11:03:55;100560.72;;;4.86;100.00
69153;BME280;56261;51.580;4.578;2024-02-26T11:06:21;100563.53;;;4.85;100.00
69153;BME280;56261;51.580;4.578;2024-02-26T11:08:50;100570.19;;;4.79;100.00
69153;BME280;56261;51.580;4.578;2024-02-26T11:11:17;100568.09;;;4.83;100.00
69153;BME280;56261;51.580;4.578;2024-02-26T11:13:46;100563.38;;;4.76;100.00
69153;BME280;56261;51.580;4.578;2024-02-26T11:16:16;100574.75;;;4.77;100.00
69153;BME280;56261;51.580;4.578;2024-02-26T11:18:41;100584.66;;;4.85;100.00
69153;BME280;56261;51.580;4.578;2024-02-26T11:21:08;100567.38;;;4.71;100.00
69153;BME280;56261;51.580;4.578;2024-02-26T11:23:34;100590.75;;;4.75;100.00
69153;BME280;56261;51.580;4.578;2024-02-26T11:26:03;100580.47;;;4.72;100.00
69153;BME280;56261;51.580;4.578;2024-02-26T11:28:30;100584.38;;;4.78;100.00
69153;BME280;56261;51.580;4.578;2024-02-26T11:30:59;100576.44;;;4.78;100.00
69153;BME280;56261;51.580;4.578;2024-02-26T11:33:26;100588.13;;;4.85;100.00
69153;BME280;56261;51.580;4.578;2024-02-26T11:35:53;100588.66;;;4.89;100.00
69153;BME280;56261;51.580;4.578;2024-02-26T11:38:20;100593.41;;;4.85;100.00
69153;BME280;56261;51.580;4.578;2024-02-26T11:40:50;100579.63;;;4.82;100.00
69153;BME280;56261;51.580;4.578;2024-02-26T11:43:16;100583.81;;;4.84;100.00
69153;BME280;56261;51.580;4.578;2024-02-26T11:45:47;100588.66;;;4.89;100.00
69153;BME280;56261;51.580;4.578;2024-02-26T11:48:16;100600.09;;;4.89;100.00
69153;BME280;56261;51.580;4.578;2024-02-26T11:50:46;100584.09;;;4.81;100.00
69153;BME280;56261;51.580;4.578;2024-02-26T11:59:37;100594.09;;;4.97;100.00
69153;BME280;56261;51.580;4.578;2024-02-26T12:02:02;100585.34;;;4.87;100.00
69153;BME280;56261;51.580;4.578;2024-02-26T12:04:30;100598.25;;;4.99;100.00
69153;BME280;56261;51.580;4.578;2024-02-26T12:07:03;100607.19;;;4.98;100.00
69153;BME280;56261;51.580;4.578;2024-02-26T12:09:38;100601.06;;;4.98;100.00
69153;BME280;56261;51.580;4.578;2024-02-26T12:12:06;100614.28;;;5.08;100.00
69153;BME280;56261;51.580;4.578;2024-02-26T12:14:51;100602.59;;;5.01;100.00
69153;BME280;56261;51.580;4.578;2024-02-26T12:17:24;100610.53;;;5.01;100.00
69153;BME280;56261;51.580;4.578;2024-02-26T12:19:50;100623.16;;;5.07;100.00
69153;BME280;56261;51.580;4.578;2024-02-26T12:22:18;100607.88;;;5.10;100.00
69153;BME280;56261;51.580;4.578;2024-02-26T12:24:44;100628.19;;;5.10;100.00
69153;BME280;56261;51.580;4.578;2024-02-26T12:27:10;100631.38;;;5.13;100.00
69153;BME280;56261;51.580;4.578;2024-02-26T12:29:35;100639.44;;;5.22;100.00
69153;BME280;56261;51.580;4.578;2024-02-26T12:32:01;100640.16;;;5.14;100.00
69153;BME280;56261;51.580;4.578;2024-02-26T12:34:28;100633.63;;;5.18;100.00
69153;BME280;56261;51.580;4.578;2024-02-26T12:36:57;100648.19;;;5.22;100.00
69153;BME280;56261;51.580;4.578;2024-02-26T12:39:22;100657.25;;;5.19;100.00
69153;BME280;56261;51.580;4.578;2024-02-26T12:41:48;100646.28;;;5.14;100.00
69153;BME280;56261;51.580;4.578;2024-02-26T12:44:15;100655.88;;;5.25;100.00
69153;BME280;56261;51.580;4.578;2024-02-26T12:46:41;100669.34;;;5.22;100.00
69153;BME280;56261;51.580;4.578;2024-02-26T12:49:06;100665.19;;;5.19;100.00
69153;BME280;56261;51.580;4.578;2024-02-26T12:51:33;100677.03;;;5.25;100.00
69153;BME280;56261;51.580;4.578;2024-02-26T12:53:58;100683.16;;;5.26;100.00